Time;durP1;ratioP1;P1;durP2;ratioP2;P2;SDS_P1;SDS_P2;PMS_P1;PMS_P2;Temp;Humidity;BMP_temperature;BMP_pressure;BME280_temperature;BME280_humidity;BME280_pressure;Samples;Min_cycle;Max_cycle;Signal;HPM_P1;HPM_P2
2022/01/14 00:00:37;;;;;;;51.65;28.83;;;;;;;-3.74;98.77;100039.92;1699405;84;21371;-77
2022/01/14 00:03:43;;;;;;;43.65;25.08;;;;;;;-3.67;98.74;100039.95;1698088;84;21320;-77
2022/01/14 00:06:48;;;;;;;55.73;29.37;;;;;;;-3.57;98.74;100036.23;1698163;84;21387;-77
2022/01/14 00:09:55;;;;;;;53.05;31.20;;;;;;;-3.56;98.53;100045.98;1698658;84;21350;-77
2022/01/14 00:13:15;;;;;;;45.28;26.25;;;;;;;-3.49;98.61;100056.66;1698081;84;21367;-78
2022/01/14 00:16:07;;;;;;;47.58;26.07;;;;;;;-3.40;98.56;100047.22;1698202;84;21405;-78
2022/01/14 00:19:13;;;;;;;54.48;31.10;;;;;;;-3.35;98.48;100011.69;1699393;84;21205;-77
2022/01/14 00:22:31;;;;;;;49.58;29.15;;;;;;;-3.28;98.35;99989.45;1699208;84;21273;-79
2022/01/14 00:32:34;;;;;;;56.73;30.70;;;;;;;-3.35;98.00;99951.03;1688098;85;21863;-78
2022/01/14 00:35:32;;;;;;;44.40;24.37;;;;;;;-3.36;98.33;99951.99;1687536;85;21235;-78
2022/01/14 00:38:38;;;;;;;50.78;29.20;;;;;;;-3.33;98.68;99954.97;1687182;85;21338;-78
2022/01/14 00:41:43;;;;;;;48.55;27.85;;;;;;;-3.30;98.95;99945.88;1657720;86;21331;-79
2022/01/14 00:44:49;;;;;;;53.85;30.68;;;;;;;-3.23;99.13;99947.22;1688015;85;21362;-78
2022/01/14 00:47:55;;;;;;;52.58;29.60;;;;;;;-3.25;99.12;99957.99;1660406;86;21259;-78
2022/01/14 00:51:01;;;;;;;57.90;30.77;;;;;;;-3.20;99.32;99947.00;1660257;86;21326;-78
2022/01/14 00:54:08;;;;;;;48.75;29.63;;;;;;;-3.16;99.54;99930.66;1659303;86;21378;-78
2022/01/14 00:57:27;;;;;;;53.90;32.10;;;;;;;-3.09;99.63;99921.28;1660427;86;21327;-78
2022/01/14 01:00:24;;;;;;;59.38;31.35;;;;;;;-3.05;99.57;99909.06;1660310;86;21335;-78
2022/01/14 01:03:30;;;;;;;59.25;32.58;;;;;;;-3.01;99.60;99905.20;1660303;86;21188;-78
2022/01/14 01:06:36;;;;;;;55.23;29.80;;;;;;;-2.97;99.66;99894.67;1659273;86;21659;-77
2022/01/14 01:09:47;;;;;;;57.25;31.17;;;;;;;-2.94;99.71;99899.36;1659001;86;21342;-77
2022/01/14 01:15:56;;;;;;;63.02;31.50;;;;;;;-2.91;99.75;99880.43;1659802;86;21814;-78
2022/01/14 01:19:00;;;;;;;54.85;30.25;;;;;;;-2.90;99.78;99877.27;1660310;86;21342;-78
2022/01/14 01:22:06;;;;;;;54.35;30.85;;;;;;;-2.89;99.96;99879.84;1658980;86;21216;-77
2022/01/14 01:25:15;;;;;;;53.78;31.27;;;;;;;-2.85;100.00;99881.35;1655169;85;21335;-77
2022/01/14 01:28:20;;;;;;;50.20;26.73;;;;;;;-2.83;100.00;99880.76;1640328;87;21354;-79
2022/01/14 01:31:41;;;;;;;58.92;30.82;;;;;;;-2.81;100.00;99882.02;1666102;86;21220;-80
2022/01/14 01:34:48;;;;;;;55.85;30.90;;;;;;;-2.82;100.00;99891.02;1640368;86;21337;-80
2022/01/14 01:37:53;;;;;;;55.90;30.68;;;;;;;-2.79;100.00;99877.89;1638015;87;21903;-80
2022/01/14 01:40:59;;;;;;;55.55;30.88;;;;;;;-2.74;100.00;99882.45;1636953;87;21895;-80
2022/01/14 01:44:06;;;;;;;62.90;31.80;;;;;;;-2.70;100.00;99872.77;1637373;87;21853;-80
2022/01/14 01:47:11;;;;;;;63.35;31.75;;;;;;;-2.66;100.00;99870.27;1637323;87;21238;-80
2022/01/14 01:50:18;;;;;;;66.67;33.92;;;;;;;-2.61;100.00;99868.62;1663631;86;22271;-79
2022/01/14 01:53:24;;;;;;;60.90;32.10;;;;;;;-2.59;100.00;99854.64;1663471;86;21351;-77
2022/01/14 01:56:29;;;;;;;70.15;35.92;;;;;;;-2.53;100.00;99855.58;1662288;86;21372;-77
2022/01/14 01:59:35;;;;;;;52.90;30.60;;;;;;;-2.52;100.00;99843.91;1662868;86;21898;-77
2022/01/14 02:02:42;;;;;;;69.67;34.70;;;;;;;-2.47;100.00;99832.39;1663656;86;21748;-78
2022/01/14 02:05:46;;;;;;;58.68;32.10;;;;;;;-2.42;100.00;99826.23;1666574;86;21877;-77
2022/01/14 02:08:52;;;;;;;72.17;36.48;;;;;;;-2.36;100.00;99828.48;1666175;86;21382;-79
2022/01/14 02:11:58;;;;;;;66.67;34.18;;;;;;;-2.30;100.00;99819.19;1666538;86;22512;-80
2022/01/14 02:15:11;;;;;;;65.08;35.80;;;;;;;-2.29;100.00;99829.41;1665308;86;21917;-80
2022/01/14 02:25:06;;;;;;;62.93;35.52;;;;;;;-2.19;100.00;99818.42;1666785;85;22662;-80
2022/01/14 02:27:57;;;;;;;81.12;35.10;;;;;;;-2.14;100.00;99813.11;1686604;85;21307;-80
2022/01/14 02:31:04;;;;;;;56.75;30.82;;;;;;;-2.09;100.00;99800.24;1686172;85;21881;-80
2022/01/14 02:34:11;;;;;;;61.02;34.53;;;;;;;-2.04;100.00;99793.22;1687668;85;21850;-80
2022/01/14 02:37:21;;;;;;;77.97;35.43;;;;;;;-1.99;100.00;99785.70;1687094;85;21251;-80
2022/01/14 02:40:30;;;;;;;69.77;36.75;;;;;;;-1.95;99.94;99772.95;1663020;85;21327;-79
2022/01/14 02:43:37;;;;;;;64.87;34.23;;;;;;;-1.94;99.76;99770.15;1687595;85;21906;-80
2022/01/14 02:46:51;;;;;;;71.87;38.05;;;;;;;-1.94;99.68;99763.45;1686919;85;21354;-80
2022/01/14 02:49:54;;;;;;;69.00;36.15;;;;;;;-1.97;99.57;99752.11;1666160;86;21326;-80
2022/01/14 02:53:01;;;;;;;68.35;36.28;;;;;;;-1.98;99.69;99744.52;1687927;85;21804;-77
2022/01/14 02:56:04;;;;;;;54.60;30.08;;;;;;;-1.95;99.81;99740.78;1686268;85;21327;-78
2022/01/14 02:59:17;;;;;;;62.13;34.43;;;;;;;-1.95;99.78;99734.94;1686334;85;21316;-79
2022/01/14 03:02:28;;;;;;;48.57;27.03;;;;;;;-1.94;99.84;99712.52;1688233;85;21188;-78
2022/01/14 03:05:38;;;;;;;65.72;34.70;;;;;;;-1.89;99.88;99710.35;1688200;85;21212;-78
2022/01/14 03:08:44;;;;;;;64.25;34.98;;;;;;;-1.83;99.99;99704.56;1686513;85;21298;-78
2022/01/14 03:11:59;;;;;;;66.05;35.23;;;;;;;-1.85;99.78;99694.91;1687555;85;21319;-78
2022/01/14 03:15:05;;;;;;;62.50;34.80;;;;;;;-1.85;99.75;99679.67;1687419;85;21418;-78
2022/01/14 03:18:12;;;;;;;63.02;35.13;;;;;;;-1.86;99.71;99675.29;1686778;85;21354;-78
2022/01/14 03:21:26;;;;;;;71.57;37.38;;;;;;;-1.89;99.72;99675.50;1687781;85;21194;-78
2022/01/14 03:27:32;;;;;;;79.53;42.98;;;;;;;-1.84;100.00;99667.13;1687777;84;21965;-79
2022/01/14 03:30:38;;;;;;;67.42;33.25;;;;;;;-1.82;100.00;99663.38;1693887;84;21888;-79
2022/01/14 03:33:43;;;;;;;66.10;37.80;;;;;;;-1.75;100.00;99646.83;1694380;84;21330;-79
2022/01/14 03:36:49;;;;;;;69.30;36.55;;;;;;;-1.74;100.00;99639.14;1694566;84;21886;-79
2022/01/14 03:39:55;;;;;;;69.72;38.42;;;;;;;-1.74;100.00;99623.94;1694380;84;21366;-79
2022/01/14 03:43:01;;;;;;;63.48;33.45;;;;;;;-1.81;100.00;99613.29;1694368;84;21373;-78
2022/01/14 03:46:07;;;;;;;69.85;34.58;;;;;;;-1.83;100.00;99605.37;1693935;84;21341;-78
2022/01/14 03:49:13;;;;;;;67.17;37.90;;;;;;;-1.87;100.00;99609.73;1693316;84;21208;-78
2022/01/14 03:52:18;;;;;;;62.93;35.17;;;;;;;-1.94;100.00;99609.80;1693073;84;21271;-79
2022/01/14 03:55:23;;;;;;;70.52;37.40;;;;;;;-1.96;100.00;99600.55;1693002;84;21755;-78
2022/01/14 03:58:28;;;;;;;60.17;34.03;;;;;;;-1.95;100.00;99593.36;1693574;84;21244;-79
2022/01/14 04:01:33;;;;;;;74.32;37.95;;;;;;;-1.90;100.00;99600.08;1693767;84;21345;-80
2022/01/14 04:04:39;;;;;;;66.95;36.85;;;;;;;-1.84;100.00;99586.20;1694273;84;21886;-79
2022/01/14 04:07:45;;;;;;;68.57;38.38;;;;;;;-1.73;100.00;99580.55;1692835;84;21957;-76
2022/01/14 04:10:53;;;;;;;61.15;34.90;;;;;;;-1.63;100.00;99577.53;1693038;84;21736;-79
2022/01/14 04:14:07;;;;;;;56.23;32.25;;;;;;;-1.59;100.00;99573.65;1694636;84;21211;-79
2022/01/14 04:17:06;;;;;;;54.42;32.45;;;;;;;-1.52;100.00;99564.15;1693520;84;21283;-79
2022/01/14 04:20:14;;;;;;;51.37;30.62;;;;;;;-1.45;100.00;99564.55;1694444;84;21897;-80
2022/01/14 04:23:21;;;;;;;57.93;33.53;;;;;;;-1.38;100.00;99558.57;1694339;84;21857;-79
2022/01/14 04:26:26;;;;;;;44.95;28.42;;;;;;;-1.31;100.00;99542.87;1693760;84;21365;-79
2022/01/14 04:29:32;;;;;;;55.75;32.45;;;;;;;-1.25;100.00;99525.43;1686280;85;21260;-78
2022/01/14 04:32:38;;;;;;;46.73;28.17;;;;;;;-1.24;100.00;99528.47;1685334;85;21398;-79
2022/01/14 04:35:43;;;;;;;46.15;27.32;;;;;;;-1.23;100.00;99527.00;1685020;85;21209;-78
2022/01/14 04:38:50;;;;;;;53.05;30.72;;;;;;;-1.22;100.00;99517.12;1686877;85;21252;-79
2022/01/14 04:41:56;;;;;;;53.00;31.12;;;;;;;-1.24;100.00;99518.59;1687674;85;21852;-79
2022/01/14 04:45:01;;;;;;;52.00;28.95;;;;;;;-1.21;100.00;99515.67;1687690;85;21292;-79
2022/01/14 04:48:08;;;;;;;42.95;26.65;;;;;;;-1.17;100.00;99515.80;1681844;85;21363;-78
2022/01/14 04:51:14;;;;;;;42.08;24.37;;;;;;;-1.11;100.00;99507.26;1652244;87;21332;-78
2022/01/14 04:54:19;;;;;;;55.52;30.85;;;;;;;-1.06;100.00;99510.92;1651022;87;21342;-78
2022/01/14 04:57:25;;;;;;;49.27;29.92;;;;;;;-1.08;100.00;99510.20;1652331;87;21342;-77
2022/01/14 05:00:35;;;;;;;42.78;26.00;;;;;;;-1.07;100.00;99506.53;1703411;84;21406;-78
2022/01/14 05:03:41;;;;;;;51.98;31.93;;;;;;;-1.00;100.00;99496.15;1704993;84;21334;-78
2022/01/14 05:06:49;;;;;;;59.23;30.97;;;;;;;-1.01;100.00;99493.95;1687293;84;21350;-78
2022/01/14 05:10:21;;;;;;;46.20;27.85;;;;;;;-0.98;100.00;99486.16;1684925;85;21855;-78
2022/01/14 05:13:01;;;;;;;50.90;29.27;;;;;;;-0.92;100.00;99491.88;1684852;85;21325;-79
2022/01/14 05:16:08;;;;;;;44.05;26.75;;;;;;;-0.86;100.00;99495.41;1685106;85;21261;-78
2022/01/14 05:19:14;;;;;;;49.18;27.87;;;;;;;-0.79;100.00;99483.70;1658329;86;21401;-79
2022/01/14 05:22:19;;;;;;;58.45;32.98;;;;;;;-0.77;100.00;99481.23;1658438;86;21361;-79
2022/01/14 05:25:25;;;;;;;54.05;29.27;;;;;;;-0.78;100.00;99484.91;1658689;86;21325;-78
2022/01/14 05:28:31;;;;;;;54.30;30.23;;;;;;;-0.73;100.00;99481.00;1678753;83;22041;-79
2022/01/14 05:32:03;;;;;;;50.50;26.50;;;;;;;-0.72;100.00;99468.77;1679098;85;21334;-78
2022/01/14 05:35:05;;;;;;;47.95;27.95;;;;;;;-0.69;100.00;99460.48;1672779;85;21867;-79
2022/01/14 05:38:10;;;;;;;39.15;23.60;;;;;;;-0.65;100.00;99465.12;1651237;87;21966;-79
2022/01/14 05:41:16;;;;;;;52.98;29.85;;;;;;;-0.61;100.00;99463.40;1653080;85;21875;-79
2022/01/14 05:44:23;;;;;;;41.55;24.45;;;;;;;-0.56;100.00;99453.62;1667992;85;21299;-78
2022/01/14 05:47:30;;;;;;;41.60;24.67;;;;;;;-0.51;100.00;99450.06;1653039;84;21358;-79
2022/01/14 05:50:36;;;;;;;43.63;26.07;;;;;;;-0.50;100.00;99438.33;1677391;85;21319;-79
2022/01/14 05:53:42;;;;;;;46.28;27.58;;;;;;;-0.48;100.00;99422.92;1665707;85;21399;-79
2022/01/14 05:56:48;;;;;;;35.85;23.05;;;;;;;-0.42;100.00;99421.09;1666296;85;21217;-80
2022/01/14 05:59:54;;;;;;;43.25;25.27;;;;;;;-0.36;100.00;99423.25;1659565;85;21890;-79
2022/01/14 06:03:01;;;;;;;45.38;26.33;;;;;;;-0.34;100.00;99419.93;1670574;85;21922;-79
2022/01/14 06:06:08;;;;;;;40.63;24.25;;;;;;;-0.31;100.00;99411.63;1669380;85;21212;-77
2022/01/14 06:09:13;;;;;;;38.95;23.00;;;;;;;-0.24;100.00;99407.06;1666815;85;22248;-78
2022/01/14 06:12:19;;;;;;;42.73;26.87;;;;;;;-0.16;100.00;99403.24;1668349;85;21370;-79
2022/01/14 06:15:24;;;;;;;41.45;24.70;;;;;;;-0.12;100.00;99389.91;1665827;84;21303;-78
2022/01/14 06:18:30;;;;;;;34.90;20.70;;;;;;;-0.08;100.00;99384.63;1649202;86;21538;-82
2022/01/14 06:21:43;;;;;;;39.95;24.40;;;;;;;-0.03;100.00;99387.78;1614331;87;21183;-83
2022/01/14 06:24:52;;;;;;;41.53;25.17;;;;;;;0.00;100.00;99388.88;1678715;84;21252;-83
2022/01/14 06:27:59;;;;;;;32.10;21.07;;;;;;;0.06;100.00;99382.95;1668368;85;21319;-83
2022/01/14 06:31:09;;;;;;;39.63;23.10;;;;;;;0.12;100.00;99377.53;1681094;82;21271;-80
2022/01/14 06:34:19;;;;;;;42.83;24.10;;;;;;;0.12;100.00;99370.31;1673254;84;21240;-80
2022/01/14 06:37:26;;;;;;;33.00;20.17;;;;;;;0.14;100.00;99358.07;1666948;84;21959;-79
2022/01/14 06:40:32;;;;;;;34.03;20.90;;;;;;;0.17;100.00;99346.56;1644994;84;21326;-79
2022/01/14 06:43:41;;;;;;;38.38;22.80;;;;;;;0.21;100.00;99337.74;1666170;84;21972;-79
2022/01/14 06:47:05;;;;;;;42.25;22.17;;;;;;;0.26;100.00;99343.56;1640341;84;21275;-79
2022/01/14 06:50:08;;;;;;;29.50;19.55;;;;;;;0.33;100.00;99328.61;1672842;83;21242;-80
2022/01/14 06:53:13;;;;;;;29.07;18.40;;;;;;;0.44;100.00;99323.62;1642495;86;21325;-79
2022/01/14 06:56:19;;;;;;;28.23;19.00;;;;;;;0.49;100.00;99322.71;1610528;87;21321;-82
2022/01/14 06:59:25;;;;;;;31.77;18.60;;;;;;;0.54;100.00;99313.73;1664731;84;21211;-80
2022/01/14 07:02:31;;;;;;;29.45;19.67;;;;;;;0.55;100.00;99318.13;1663599;84;21332;-81
2022/01/14 07:05:37;;;;;;;29.35;19.30;;;;;;;0.58;100.00;99315.16;1665296;84;21332;-81
2022/01/14 07:08:43;;;;;;;30.80;18.85;;;;;;;0.61;100.00;99300.10;1666525;84;22351;-78
2022/01/14 07:11:55;;;;;;;21.55;15.85;;;;;;;0.63;100.00;99302.64;1663147;84;21338;-79
2022/01/14 07:14:57;;;;;;;27.95;17.77;;;;;;;0.68;100.00;99289.12;1664792;84;21755;-81
2022/01/14 07:18:04;;;;;;;29.65;19.67;;;;;;;0.75;100.00;99268.75;1671359;84;21233;-80
2022/01/14 07:21:10;;;;;;;30.50;19.30;;;;;;;0.80;100.00;99266.98;1644745;86;21316;-80
2022/01/14 07:24:17;;;;;;;31.23;17.30;;;;;;;0.80;100.00;99252.66;1669472;84;21978;-79
2022/01/14 07:27:22;;;;;;;26.73;17.50;;;;;;;0.82;100.00;99240.77;1668389;84;21306;-79
2022/01/14 07:30:29;;;;;;;30.37;18.87;;;;;;;0.88;100.00;99225.89;1670267;83;21207;-80
2022/01/14 07:33:36;;;;;;;30.23;17.67;;;;;;;0.98;100.00;99224.04;1661330;85;21633;-79
2022/01/14 07:36:41;;;;;;;27.93;17.57;;;;;;;1.07;100.00;99222.34;1666660;85;21361;-79
2022/01/14 07:39:47;;;;;;;24.87;16.05;;;;;;;1.11;100.00;99222.41;1647516;86;21287;-79
2022/01/14 07:42:54;;;;;;;25.88;17.12;;;;;;;1.12;100.00;99231.69;1620095;88;21835;-82
2022/01/14 07:46:12;;;;;;;24.70;15.65;;;;;;;1.13;100.00;99223.98;1666516;84;21311;-83
2022/01/14 07:49:18;;;;;;;25.05;14.60;;;;;;;1.15;100.00;99214.41;1640441;86;21883;-80
2022/01/14 07:52:27;;;;;;;21.05;14.35;;;;;;;1.13;100.00;99209.17;1619520;86;21232;-78
2022/01/14 07:55:34;;;;;;;20.08;12.80;;;;;;;1.17;100.00;99198.94;1644601;86;21819;-81
2022/01/14 07:58:41;;;;;;;19.95;12.68;;;;;;;1.22;100.00;99200.70;1648078;86;21203;-80
2022/01/14 08:01:47;;;;;;;25.12;14.50;;;;;;;1.23;100.00;99191.66;1650557;86;21350;-82
2022/01/14 08:04:56;;;;;;;18.95;13.58;;;;;;;1.26;100.00;99183.27;1652134;86;21956;-81
2022/01/14 08:08:05;;;;;;;24.57;12.23;;;;;;;1.36;100.00;99181.89;1625592;86;21244;-80
2022/01/14 08:11:17;;;;;;;15.45;10.45;;;;;;;1.45;100.00;99181.02;1627447;86;21172;-80
2022/01/14 08:14:26;;;;;;;19.52;12.78;;;;;;;1.54;100.00;99164.83;1647586;85;21200;-80
2022/01/14 08:17:32;;;;;;;20.25;11.90;;;;;;;1.60;100.00;99156.67;1667602;84;21255;-79
2022/01/14 08:20:37;;;;;;;19.30;12.25;;;;;;;1.63;100.00;99150.97;1664564;85;21192;-79
2022/01/14 08:23:42;;;;;;;17.10;10.48;;;;;;;1.71;100.00;99142.16;1646378;85;21216;-80
2022/01/14 08:26:52;;;;;;;18.87;12.78;;;;;;;1.77;100.00;99139.70;1668188;85;21264;-82
2022/01/14 08:29:59;;;;;;;17.05;11.53;;;;;;;1.86;100.00;99133.92;1664928;85;21322;-81
2022/01/14 08:33:07;;;;;;;19.20;12.05;;;;;;;1.99;100.00;99122.78;1676522;83;21231;-79
2022/01/14 08:36:12;;;;;;;18.00;12.33;;;;;;;2.06;100.00;99118.47;1685073;83;21216;-79
2022/01/14 08:39:18;;;;;;;16.07;10.90;;;;;;;2.12;100.00;99112.97;1684767;83;21328;-79
2022/01/14 08:42:23;;;;;;;16.90;11.55;;;;;;;2.11;100.00;99105.88;1683474;83;21939;-85
2022/01/14 08:45:28;;;;;;;17.07;12.28;;;;;;;2.04;99.82;99101.10;1687822;83;21441;-82
2022/01/14 08:48:35;;;;;;;15.20;10.60;;;;;;;2.10;99.94;99099.64;1683860;83;21287;-78
2022/01/14 08:51:41;;;;;;;18.55;11.28;;;;;;;2.18;99.86;99077.31;1684770;83;21344;-79
2022/01/14 08:54:47;;;;;;;17.85;12.35;;;;;;;2.20;99.53;99082.88;1680518;83;22503;-79
2022/01/14 08:57:57;;;;;;;19.42;11.97;;;;;;;2.19;99.25;99071.75;1660373;84;21280;-79
2022/01/14 09:01:04;;;;;;;20.82;12.88;;;;;;;2.17;99.11;99064.33;1640137;86;21757;-79
2022/01/14 09:04:10;;;;;;;16.80;11.40;;;;;;;2.15;98.91;99064.95;1665093;84;21266;-80
2022/01/14 09:07:16;;;;;;;19.90;13.25;;;;;;;2.04;98.83;99049.01;1636764;86;21279;-80
2022/01/14 09:10:23;;;;;;;22.30;13.70;;;;;;;1.93;99.01;99041.99;1685553;83;21200;-80
2022/01/14 09:13:30;;;;;;;19.37;13.32;;;;;;;1.84;99.41;99036.66;1690620;83;21842;-79
2022/01/14 09:16:35;;;;;;;19.12;12.93;;;;;;;1.86;100.00;99027.91;1686819;83;21354;-80
2022/01/14 09:19:41;;;;;;;18.73;12.80;;;;;;;1.93;100.00;99012.80;1684869;83;21345;-79
2022/01/14 09:22:51;;;;;;;18.23;12.68;;;;;;;2.02;100.00;99005.14;1687080;83;21215;-79
2022/01/14 09:25:54;;;;;;;18.85;13.22;;;;;;;2.13;100.00;98994.64;1684675;83;21196;-78
2022/01/14 09:28:59;;;;;;;20.48;11.85;;;;;;;2.18;100.00;98987.78;1685460;83;21544;-78
2022/01/14 09:32:05;;;;;;;21.25;13.53;;;;;;;2.15;99.86;98971.89;1685778;83;21811;-79
2022/01/14 09:35:13;;;;;;;20.72;11.48;;;;;;;2.12;99.77;98970.87;1681334;83;21321;-79
2022/01/14 09:38:18;;;;;;;19.15;13.03;;;;;;;2.15;100.00;98960.25;1680627;83;21323;-78
2022/01/14 09:41:24;;;;;;;20.82;12.88;;;;;;;2.16;100.00;98939.02;1678301;83;21330;-79
2022/01/14 09:44:30;;;;;;;20.55;11.73;;;;;;;2.23;100.00;98926.10;1687982;83;21341;-79
2022/01/14 09:47:36;;;;;;;16.67;11.88;;;;;;;2.34;100.00;98926.34;1681775;83;21291;-79
2022/01/14 09:50:42;;;;;;;18.35;11.90;;;;;;;2.45;100.00;98906.37;1681521;83;21192;-79
2022/01/14 09:53:47;;;;;;;19.62;11.28;;;;;;;2.52;99.88;98904.70;1651050;84;21362;-77
2022/01/14 09:56:54;;;;;;;16.73;12.25;;;;;;;2.60;99.70;98889.92;1653006;84;21334;-78
2022/01/14 10:00:02;;;;;;;17.82;12.13;;;;;;;2.61;99.14;98888.91;1657105;84;22491;-78
2022/01/14 10:03:31;;;;;;;19.57;12.68;;;;;;;2.57;98.87;98879.43;1654557;84;21542;-78
2022/01/14 10:06:51;;;;;;;18.20;13.08;;;;;;;2.50;98.72;98871.64;1680955;83;21276;-78
2022/01/14 10:10:01;;;;;;;25.52;15.43;;;;;;;2.49;99.08;98867.23;1688185;83;21228;-80
2022/01/14 10:13:18;;;;;;;19.50;13.45;;;;;;;2.54;99.10;98863.55;1681743;83;21618;-80
2022/01/14 10:16:23;;;;;;;29.77;14.83;;;;;;;2.58;99.14;98848.72;1684598;83;21338;-80
2022/01/14 10:19:34;;;;;;;24.10;14.43;;;;;;;2.58;98.75;98838.43;1656082;83;21176;-80
2022/01/14 10:22:41;;;;;;;18.12;12.98;;;;;;;2.50;98.57;98829.81;1688010;83;21332;-81
2022/01/14 10:25:52;;;;;;;20.20;12.80;;;;;;;2.46;98.65;98827.09;1681848;83;21228;-80
2022/01/14 10:29:12;;;;;;;19.32;12.63;;;;;;;2.44;98.78;98822.33;1635988;84;21203;-80
2022/01/14 10:32:46;;;;;;;15.45;10.70;;;;;;;2.39;98.80;98814.72;1690604;83;21307;-79
2022/01/14 10:35:53;;;;;;;19.60;12.30;;;;;;;2.40;99.17;98804.77;1681626;83;21235;-79
2022/01/14 10:38:59;;;;;;;17.00;11.25;;;;;;;2.41;99.30;98800.58;1682310;83;21225;-79
2022/01/14 10:42:04;;;;;;;17.67;11.55;;;;;;;2.45;99.47;98795.71;1668908;84;21286;-79
2022/01/14 10:45:29;;;;;;;15.25;11.22;;;;;;;2.48;99.52;98791.32;1661097;84;21227;-80
2022/01/14 10:48:48;;;;;;;13.95;10.58;;;;;;;2.47;99.48;98774.28;1667560;84;22453;-79
2022/01/14 10:51:57;;;;;;;15.95;11.40;;;;;;;2.49;99.57;98761.49;1656961;86;21188;-79
2022/01/14 10:55:04;;;;;;;18.87;13.25;;;;;;;2.51;99.58;98753.22;1667965;84;21306;-77
2022/01/14 10:58:11;;;;;;;16.00;11.55;;;;;;;2.49;99.53;98752.05;1686291;83;21359;-78
2022/01/14 11:01:23;;;;;;;17.50;11.63;;;;;;;2.51;99.73;98739.22;1681298;83;21295;-77
2022/01/14 11:04:28;;;;;;;16.25;11.25;;;;;;;2.59;99.83;98728.09;1679784;84;21213;-77
2022/01/14 11:07:36;;;;;;;15.68;9.88;;;;;;;2.65;99.71;98713.45;1684974;84;21216;-78
2022/01/14 11:10:44;;;;;;;19.55;9.93;;;;;;;2.66;99.49;98700.80;1682957;85;21941;-79
2022/01/14 11:13:54;;;;;;;13.77;9.60;;;;;;;2.63;99.23;98698.41;1684851;84;21343;-79
2022/01/14 11:17:08;;;;;;;12.78;9.23;;;;;;;2.56;99.18;98688.28;1682137;83;21423;-79
2022/01/14 11:20:24;;;;;;;11.68;8.60;;;;;;;2.51;99.27;98683.05;1686647;83;21322;-81
2022/01/14 11:23:25;;;;;;;;;;;;;;;2.45;99.42;98679.66;1683730;83;21236;-79
2022/01/14 11:26:41;;;;;;;12.53;8.25;;;;;;;2.40;99.68;98671.19;1681696;83;20334;-78
2022/01/14 11:29:58;;;;;;;10.50;7.33;;;;;;;2.33;100.00;98664.77;1681928;83;21412;-82
2022/01/14 11:33:05;;;;;;;13.13;7.47;;;;;;;2.28;100.00;98641.82;1675295;83;21342;-80
2022/01/14 11:36:12;;;;;;;9.93;7.30;;;;;;;2.24;100.00;98639.11;1660757;84;21390;-79
2022/01/14 11:39:36;;;;;;;10.30;6.95;;;;;;;2.21;100.00;98648.02;1678765;85;21208;-79
2022/01/14 11:43:03;;;;;;;12.65;7.90;;;;;;;2.18;100.00;98638.42;1673362;85;21215;-80
2022/01/14 11:46:10;;;;;;;12.05;8.33;;;;;;;2.15;100.00;98633.85;1677204;83;21302;-78
2022/01/14 11:49:44;;;;;;;10.58;7.60;;;;;;;2.13;100.00;98637.23;1659630;85;21263;-78
2022/01/14 11:52:51;;;;;;;12.50;8.15;;;;;;;2.10;100.00;98632.99;1681374;83;21806;-78
2022/01/14 11:55:57;;;;;;;11.57;8.05;;;;;;;2.10;100.00;98632.15;1675048;85;22001;-79
2022/01/14 11:59:29;;;;;;;13.40;9.53;;;;;;;2.03;100.00;98628.77;1679224;83;21260;-79
2022/01/14 12:02:31;;;;;;;11.55;7.92;;;;;;;2.01;100.00;98619.14;1677029;85;21243;-78
2022/01/14 12:05:30;;;;;;;12.70;8.50;;;;;;;1.98;100.00;98603.30;1678901;83;21357;-78
2022/01/14 12:08:40;;;;;;;12.68;8.58;;;;;;;1.98;100.00;98604.66;1679083;83;21345;-78
2022/01/14 12:11:50;;;;;;;12.35;8.05;;;;;;;1.97;100.00;98597.55;1636475;85;21244;-78
2022/01/14 12:15:04;;;;;;;12.25;8.25;;;;;;;1.98;100.00;98575.83;1644328;85;21261;-79
2022/01/14 12:19:09;;;;;;;14.50;9.43;;;;;;;1.97;100.00;98557.09;1638591;83;22617;-79
2022/01/14 12:22:16;;;;;;;13.27;8.47;;;;;;;1.96;100.00;98555.41;1677593;85;21263;-77
2022/01/14 12:25:23;;;;;;;12.65;8.55;;;;;;;1.96;100.00;98547.32;1650430;85;21806;-77
2022/01/14 12:28:29;;;;;;;10.95;7.92;;;;;;;1.94;100.00;98541.27;1676164;85;21255;-78
2022/01/14 12:31:57;;;;;;;12.25;7.28;;;;;;;1.93;100.00;98543.59;1674602;85;21318;-82
2022/01/14 12:35:08;;;;;;;13.38;8.90;;;;;;;1.94;100.00;98535.88;1662366;83;21385;-80
2022/01/14 12:38:14;;;;;;;12.50;8.93;;;;;;;1.92;100.00;98531.97;1676002;85;22387;-78
2022/01/14 12:41:31;;;;;;;13.80;9.05;;;;;;;1.91;100.00;98526.25;1676630;85;21298;-79
2022/01/14 12:44:37;;;;;;;12.82;8.88;;;;;;;1.90;100.00;98521.87;1676708;85;21211;-80
2022/01/14 12:47:44;;;;;;;16.77;9.03;;;;;;;1.91;100.00;98517.31;1669526;85;21212;-79
2022/01/14 12:50:55;;;;;;;14.07;8.70;;;;;;;1.90;100.00;98512.94;1673624;83;21427;-80
2022/01/14 12:54:12;;;;;;;12.68;9.00;;;;;;;1.92;100.00;98492.87;1672785;85;21397;-80
2022/01/14 12:57:34;;;;;;;14.70;9.23;;;;;;;1.94;100.00;98491.37;1680780;85;21350;-79
2022/01/14 13:01:17;;;;;;;13.45;9.45;;;;;;;1.90;100.00;98492.20;1668559;85;21165;-78
2022/01/14 13:04:26;;;;;;;13.83;8.83;;;;;;;1.88;100.00;98482.58;1675733;85;21715;-79
2022/01/14 13:07:32;;;;;;;15.18;9.55;;;;;;;1.88;100.00;98483.93;1677841;85;21284;-80
2022/01/14 13:10:43;;;;;;;12.28;8.45;;;;;;;1.84;100.00;98474.52;1677319;85;21678;-78
2022/01/14 13:13:47;;;;;;;11.93;8.05;;;;;;;1.81;100.00;98443.32;1678900;84;21271;-77
2022/01/14 13:17:00;;;;;;;11.40;7.97;;;;;;;1.81;100.00;98457.31;1673104;85;21209;-79
2022/01/14 13:20:18;;;;;;;16.73;8.70;;;;;;;1.81;100.00;98451.92;1677367;83;21304;-79
2022/01/14 13:23:29;;;;;;;11.22;8.03;;;;;;;1.79;100.00;98458.84;1675665;85;21307;-79
2022/01/14 13:26:41;;;;;;;13.83;9.13;;;;;;;1.78;100.00;98459.31;1676759;85;21344;-80
2022/01/14 13:29:54;;;;;;;11.43;8.33;;;;;;;1.79;100.00;98448.89;1675368;85;21953;-79
2022/01/14 13:33:08;;;;;;;12.35;8.58;;;;;;;1.79;100.00;98452.94;1678500;85;21965;-80
2022/01/14 13:36:14;;;;;;;11.22;8.30;;;;;;;1.81;100.00;98441.14;1677856;85;21237;-80
2022/01/14 13:39:29;;;;;;;13.03;8.50;;;;;;;1.78;100.00;98447.18;1660192;84;21213;-80
2022/01/14 13:42:34;;;;;;;11.68;9.05;;;;;;;1.77;100.00;98440.62;1650260;86;21326;-79
2022/01/14 13:45:46;;;;;;;9.63;7.33;;;;;;;1.77;100.00;98439.27;1652071;86;21407;-82
2022/01/14 13:48:51;;;;;;;12.00;7.70;;;;;;;1.76;100.00;98437.59;1655153;86;21212;-78
2022/01/14 13:52:17;;;;;;;10.75;7.53;;;;;;;1.74;100.00;98432.84;1642777;86;21215;-78
2022/01/14 13:55:25;;;;;;;9.70;7.45;;;;;;;1.73;100.00;98439.26;1656353;86;21204;-79
2022/01/14 13:58:33;;;;;;;12.82;8.70;;;;;;;1.73;100.00;98432.01;1600400;88;21375;-79
2022/01/14 14:01:38;;;;;;;11.15;7.40;;;;;;;1.77;100.00;98427.14;1627787;87;21231;-79
2022/01/14 14:04:47;;;;;;;9.95;6.83;;;;;;;1.78;100.00;98436.91;1633132;87;21286;-78
2022/01/14 14:07:53;;;;;;;10.58;6.87;;;;;;;1.77;100.00;98413.15;1624071;87;21678;-78
2022/01/14 14:18:16;;;;;;;9.60;6.97;;;;;;;1.79;100.00;98401.72;1635119;87;21458;-79
2022/01/14 14:21:23;;;;;;;9.83;6.83;;;;;;;1.78;100.00;98389.73;1631767;87;21841;-79
2022/01/14 14:24:29;;;;;;;12.15;7.22;;;;;;;1.78;100.00;98383.83;1636535;87;22306;-79
2022/01/14 14:27:36;;;;;;;10.70;7.10;;;;;;;1.78;100.00;98383.83;1611356;88;21291;-78
2022/01/14 14:30:45;;;;;;;8.88;6.65;;;;;;;1.79;100.00;98380.15;1631365;88;21353;-78
2022/01/14 14:33:51;;;;;;;8.78;5.67;;;;;;;1.80;100.00;98375.59;1653997;85;21351;-78
2022/01/14 14:36:57;;;;;;;10.08;6.92;;;;;;;1.81;100.00;98361.10;1678129;85;21410;-78
2022/01/14 14:40:04;;;;;;;10.80;6.50;;;;;;;1.78;100.00;98354.17;1676789;84;21335;-79
2022/01/14 14:43:10;;;;;;;9.13;6.53;;;;;;;1.81;100.00;98346.78;1670840;85;21847;-79
2022/01/14 14:46:15;;;;;;;9.03;6.33;;;;;;;1.84;100.00;98339.72;1658236;85;21895;-80
2022/01/14 14:49:22;;;;;;;8.43;6.28;;;;;;;1.91;100.00;98342.05;1658480;84;21235;-78
2022/01/14 14:52:22;;;;;;;11.12;5.75;;;;;;;1.95;100.00;98324.53;1651363;87;21907;-78
2022/01/14 14:55:27;;;;;;;9.53;6.42;;;;;;;2.01;100.00;98320.64;1651467;87;21899;-77